Time;durP1;ratioP1;P1;durP2;ratioP2;P2;SDS_P1;SDS_P2;PMS_P1;PMS_P2;Temp;Humidity;BMP_temperature;BMP_pressure;BME280_temperature;BME280_humidity;BME280_pressure;Samples;Min_cycle;Max_cycle;Signal;HPM_P1;HPM_P2
2023/03/02 00:01:28;;;;;;;19.80;11.53;;;;;;;;;;4391216;32;319426;-82
2023/03/02 00:03:58;;;;;;;19.87;12.10;;;;;;;;;;4405931;32;319514;-80
2023/03/02 00:06:28;;;;;;;15.07;10.87;;;;;;;;;;4409976;32;319522;-79
2023/03/02 00:08:55;;;;;;;16.17;10.30;;;;;;;;;;4416002;32;319054;-82
2023/03/02 00:11:22;;;;;;;21.00;10.60;;;;;;;;;;4407931;32;319478;-80
2023/03/02 00:13:48;;;;;;;17.83;10.40;;;;;;;;;;4414619;32;319361;-78
2023/03/02 00:16:15;;;;;;;24.23;10.80;;;;;;;;;;4415892;32;318891;-80
2023/03/02 00:18:42;;;;;;;21.07;11.67;;;;;;;;;;4402313;32;319335;-82
2023/03/02 00:21:10;;;;;;;22.83;12.60;;;;;;;;;;4401235;32;319542;-78
2023/03/02 00:23:38;;;;;;;34.77;14.27;;;;;;;;;;4392162;32;319408;-81
2023/03/02 00:26:05;;;;;;;30.23;15.87;;;;;;;;;;4400196;32;318671;-81
2023/03/02 00:28:32;;;;;;;37.23;21.07;;;;;;;;;;4395537;32;319502;-79
2023/03/02 00:30:59;;;;;;;34.00;19.43;;;;;;;;;;4405385;32;319179;-79
2023/03/02 00:33:27;;;;;;;28.43;17.40;;;;;;;;;;4390984;32;338632;-83
2023/03/02 00:35:53;;;;;;;27.07;15.63;;;;;;;;;;4398053;32;343544;-80
2023/03/02 00:38:20;;;;;;;21.57;12.97;;;;;;;;;;4388474;32;320223;-79
2023/03/02 00:40:49;;;;;;;18.23;12.37;;;;;;;;;;4401604;32;318682;-79
2023/03/02 00:43:16;;;;;;;15.03;10.27;;;;;;;;;;4413679;32;319758;-84
2023/03/02 00:45:43;;;;;;;21.33;11.73;;;;;;;;;;4401271;32;418595;-81
2023/03/02 00:48:10;;;;;;;17.17;11.60;;;;;;;;;;4412434;32;318747;-80
2023/03/02 00:50:39;;;;;;;28.10;11.97;;;;;;;;;;4402754;32;319136;-83
2023/03/02 00:53:07;;;;;;;27.17;12.73;;;;;;;;;;4405645;32;319246;-80
2023/03/02 00:55:34;;;;;;;23.97;12.23;;;;;;;;;;4386547;32;343420;-79
2023/03/02 00:58:02;;;;;;;22.20;12.57;;;;;;;;;;4397300;32;318963;-80
2023/03/02 01:00:30;;;;;;;20.70;12.37;;;;;;;;;;4392871;32;319410;-80
2023/03/02 01:02:57;;;;;;;20.13;12.97;;;;;;;;;;4396338;32;345403;-80
2023/03/02 01:05:24;;;;;;;23.47;13.67;;;;;;;;;;4387009;32;319456;-81
2023/03/02 01:07:51;;;;;;;35.57;16.40;;;;;;;;;;4396296;32;319344;-80
2023/03/02 01:10:19;;;;;;;31.67;16.17;;;;;;;;;;4386125;32;319403;-83
2023/03/02 01:12:46;;;;;;;25.27;16.10;;;;;;;;;;4397712;32;319435;-79
2023/03/02 01:15:14;;;;;;;23.97;12.13;;;;;;;;;;4396129;32;352591;-79
2023/03/02 01:17:42;;;;;;;21.10;11.93;;;;;;;;;;4387916;32;318823;-79
2023/03/02 01:20:10;;;;;;;18.87;12.37;;;;;;;;;;4411843;32;319402;-80
2023/03/02 01:22:37;;;;;;;24.43;13.80;;;;;;;;;;4403485;32;319515;-80
2023/03/02 01:25:05;;;;;;;26.43;13.80;;;;;;;;;;4412777;32;319391;-79
2023/03/02 01:27:32;;;;;;;49.10;25.40;;;;;;;;;;4402143;32;319435;-79
2023/03/02 01:29:58;;;;;;;52.93;27.13;;;;;;;;;;4412844;32;338948;-81
2023/03/02 01:32:28;;;;;;;52.67;24.03;;;;;;;;;;4403263;32;319541;-80
2023/03/02 01:34:55;;;;;;;46.57;25.20;;;;;;;;;;4411942;32;319178;-82
2023/03/02 01:37:24;;;;;;;44.23;21.97;;;;;;;;;;4401790;32;319264;-81
2023/03/02 01:39:51;;;;;;;33.63;21.10;;;;;;;;;;4412699;32;319628;-79
2023/03/02 01:42:18;;;;;;;34.87;23.23;;;;;;;;;;4402733;32;319862;-81
2023/03/02 01:44:47;;;;;;;48.50;26.03;;;;;;;;;;4413081;32;319365;-79
2023/03/02 01:47:18;;;;;;;43.30;26.07;;;;;;;;;;4411863;32;319348;-86
2023/03/02 01:49:49;;;;;;;28.17;16.80;;;;;;;;;;4387678;32;418923;-82
2023/03/02 01:52:18;;;;;;;24.43;16.50;;;;;;;;;;4397819;32;319400;-79
2023/03/02 01:54:48;;;;;;;25.10;15.73;;;;;;;;;;4384299;32;418926;-80
2023/03/02 01:57:20;;;;;;;25.27;13.63;;;;;;;;;;4397740;32;319314;-80
2023/03/02 01:59:50;;;;;;;16.77;13.43;;;;;;;;;;4385005;32;419788;-80
2023/03/02 02:02:17;;;;;;;24.17;12.53;;;;;;;;;;4392583;32;319569;-83
2023/03/02 02:04:48;;;;;;;19.37;15.07;;;;;;;;;;4397352;32;318792;-82
2023/03/02 02:07:15;;;;;;;17.50;11.73;;;;;;;;;;4397511;32;318978;-83
2023/03/02 02:09:47;;;;;;;23.87;14.03;;;;;;;;;;4384392;32;418051;-80
2023/03/02 02:12:14;;;;;;;28.07;15.00;;;;;;;;;;4397598;32;319673;-80
2023/03/02 02:14:42;;;;;;;32.10;16.53;;;;;;;;;;4386195;32;319718;-82
2023/03/02 02:17:10;;;;;;;26.07;16.33;;;;;;;;;;4396493;32;319154;-83
2023/03/02 02:20:05;;;;;;;36.93;16.43;;;;;;;;;;4398025;32;319652;-81
2023/03/02 02:22:46;;;;;;;21.37;14.67;;;;;;;;;;4402193;32;344099;-82
2023/03/02 02:25:22;;;;;;;29.60;16.23;;;;;;;;;;4412602;32;319253;-81
2023/03/02 02:27:51;;;;;;;33.00;18.03;;;;;;;;;;4399837;32;419735;-83
2023/03/02 02:30:19;;;;;;;27.13;16.50;;;;;;;;;;4397750;32;365842;-81
2023/03/02 02:32:48;;;;;;;26.17;15.70;;;;;;;;;;4412689;32;319964;-81
2023/03/02 02:35:19;;;;;;;33.67;16.47;;;;;;;;;;4412656;32;319289;-83
2023/03/02 02:37:50;;;;;;;26.77;17.80;;;;;;;;;;4402605;32;418394;-81
2023/03/02 02:40:21;;;;;;;36.23;16.80;;;;;;;;;;4408153;32;318637;-82
2023/03/02 02:42:53;;;;;;;30.70;18.00;;;;;;;;;;4415736;32;319325;-79
2023/03/02 02:45:23;;;;;;;26.73;16.83;;;;;;;;;;4398846;32;319141;-80
2023/03/02 02:47:52;;;;;;;33.67;19.37;;;;;;;;;;4401909;32;319244;-80
2023/03/02 02:50:21;;;;;;;30.97;17.83;;;;;;;;;;4409852;32;319292;-80
2023/03/02 02:52:53;;;;;;;29.73;19.43;;;;;;;;;;4425008;32;318414;-79
2023/03/02 02:55:23;;;;;;;34.80;19.57;;;;;;;;;;4413467;32;319540;-82
2023/03/02 02:57:54;;;;;;;28.57;18.27;;;;;;;;;;4426396;32;318454;-83
2023/03/02 03:00:23;;;;;;;34.93;18.63;;;;;;;;;;4411250;32;319110;-81
2023/03/02 03:02:54;;;;;;;33.80;18.37;;;;;;;;;;4416150;32;319645;-83
2023/03/02 03:05:20;;;;;;;35.17;18.67;;;;;;;;;;4389740;32;343448;-80
2023/03/02 03:07:47;;;;;;;34.07;18.30;;;;;;;;;;4400131;32;319537;-82
2023/03/02 03:10:19;;;;;;;33.40;18.87;;;;;;;;;;4398613;32;318538;-80
2023/03/02 03:12:46;;;;;;;50.80;27.23;;;;;;;;;;4387053;32;418433;-83
2023/03/02 03:15:15;;;;;;;55.50;33.13;;;;;;;;;;4399097;32;319581;-86
2023/03/02 03:17:47;;;;;;;54.97;30.53;;;;;;;;;;4389420;32;346699;-83
2023/03/02 03:20:16;;;;;;;26.97;18.07;;;;;;;;;;4392994;32;319805;-86
2023/03/02 03:22:43;;;;;;;26.73;17.27;;;;;;;;;;4379549;32;418700;-80
2023/03/02 03:25:14;;;;;;;35.97;19.43;;;;;;;;;;4392749;32;318439;-80
2023/03/02 03:27:42;;;;;;;36.00;19.27;;;;;;;;;;4385598;32;339726;-80
2023/03/02 03:30:11;;;;;;;29.20;17.90;;;;;;;;;;4396565;32;319539;-82
2023/03/02 03:32:40;;;;;;;31.47;18.83;;;;;;;;;;4383468;32;319176;-84
2023/03/02 03:35:10;;;;;;;33.87;20.07;;;;;;;;;;4392421;32;319155;-81
2023/03/02 03:37:37;;;;;;;38.73;21.20;;;;;;;;;;4380995;32;319163;-84
2023/03/02 03:40:05;;;;;;;35.40;20.93;;;;;;;;;;4394478;32;318928;-82
2023/03/02 03:42:32;;;;;;;32.53;19.50;;;;;;;;;;4401039;32;319469;-85
2023/03/02 03:44:59;;;;;;;29.53;19.40;;;;;;;;;;4409293;32;318558;-86
2023/03/02 03:47:26;;;;;;;34.57;19.17;;;;;;;;;;4388945;32;319476;-80
2023/03/02 03:49:55;;;;;;;37.53;22.33;;;;;;;;;;4399384;32;319216;-79
2023/03/02 03:52:29;;;;;;;38.47;21.43;;;;;;;;;;4389497;32;319444;-84
2023/03/02 03:54:56;;;;;;;29.53;20.57;;;;;;;;;;4398515;32;342278;-79
2023/03/02 03:57:25;;;;;;;32.73;21.97;;;;;;;;;;4388357;32;319454;-79
2023/03/02 03:59:52;;;;;;;28.70;19.20;;;;;;;;;;4398571;32;319357;-79
2023/03/02 04:02:19;;;;;;;26.30;19.87;;;;;;;;;;4388217;32;319777;-79
2023/03/02 04:04:46;;;;;;;36.33;19.60;;;;;;;;;;4397790;32;319369;-84
2023/03/02 04:07:15;;;;;;;30.67;20.03;;;;;;;;;;4395713;32;331053;-82
2023/03/02 04:09:42;;;;;;;32.10;19.20;;;;;;;;;;4388567;32;318497;-80
2023/03/02 04:12:10;;;;;;;34.67;19.23;;;;;;;;;;4395334;32;357294;-84
2023/03/02 04:14:37;;;;;;;23.23;16.20;;;;;;;;;;4389198;32;318570;-81
2023/03/02 04:17:04;;;;;;;23.13;16.60;;;;;;;;;;4398988;32;318764;-79
2023/03/02 04:19:32;;;;;;;26.03;16.03;;;;;;;;;;4398852;32;319329;-81
2023/03/02 04:22:02;;;;;;;18.67;13.10;;;;;;;;;;4412818;32;324532;-80
2023/03/02 04:24:31;;;;;;;24.33;16.23;;;;;;;;;;4395984;32;319312;-80
2023/03/02 04:26:58;;;;;;;27.00;15.60;;;;;;;;;;4411817;32;337024;-82
2023/03/02 04:29:24;;;;;;;27.30;14.97;;;;;;;;;;4404473;32;319765;-84
2023/03/02 04:31:51;;;;;;;29.70;16.50;;;;;;;;;;4414375;32;319353;-82
2023/03/02 04:34:18;;;;;;;24.23;16.20;;;;;;;;;;4403389;32;319538;-82
2023/03/02 04:36:45;;;;;;;20.90;15.27;;;;;;;;;;4412980;32;319659;-80
2023/03/02 04:39:15;;;;;;;20.23;15.57;;;;;;;;;;4396783;32;319224;-79
2023/03/02 04:41:46;;;;;;;25.30;14.77;;;;;;;;;;4390993;32;319413;-82
2023/03/02 04:44:14;;;;;;;21.60;14.17;;;;;;;;;;4398611;32;318525;-79
2023/03/02 04:46:42;;;;;;;25.60;15.13;;;;;;;;;;4385652;32;357235;-80
2023/03/02 04:49:09;;;;;;;22.07;15.23;;;;;;;;;;4397459;32;318731;-85
2023/03/02 04:51:38;;;;;;;30.03;18.70;;;;;;;;;;4387849;32;319263;-83
2023/03/02 04:54:07;;;;;;;41.47;25.80;;;;;;;;;;4397280;32;319794;-81
2023/03/02 04:56:35;;;;;;;50.70;26.87;;;;;;;;;;4388482;32;319345;-83
2023/03/02 04:59:03;;;;;;;47.70;25.23;;;;;;;;;;4397732;32;319234;-80
2023/03/02 05:01:29;;;;;;;31.93;21.10;;;;;;;;;;4388528;32;319324;-80
2023/03/02 05:03:56;;;;;;;40.17;19.87;;;;;;;;;;4398077;32;319317;-80
2023/03/02 05:06:24;;;;;;;41.40;20.07;;;;;;;;;;4386663;32;318551;-79
2023/03/02 05:08:51;;;;;;;37.83;19.60;;;;;;;;;;4397719;32;319177;-84
2023/03/02 05:11:24;;;;;;;34.30;20.33;;;;;;;;;;4386336;32;319390;-80
2023/03/02 05:13:53;;;;;;;32.20;20.70;;;;;;;;;;4397720;32;319440;-83
2023/03/02 05:16:21;;;;;;;38.37;23.10;;;;;;;;;;4388489;32;318592;-81
2023/03/02 05:18:48;;;;;;;31.03;19.83;;;;;;;;;;4401142;32;318691;-86
2023/03/02 05:21:16;;;;;;;25.47;18.87;;;;;;;;;;4413308;32;319183;-81
2023/03/02 05:23:45;;;;;;;31.43;17.10;;;;;;;;;;4398842;32;419872;-80
2023/03/02 05:26:12;;;;;;;22.90;17.17;;;;;;;;;;4413053;32;318460;-79
2023/03/02 05:28:39;;;;;;;28.57;17.10;;;;;;;;;;4400819;32;328467;-81
2023/03/02 05:31:06;;;;;;;28.77;16.00;;;;;;;;;;4413163;32;318621;-83
2023/03/02 05:33:34;;;;;;;27.70;19.10;;;;;;;;;;4397821;32;318580;-83
2023/03/02 05:36:01;;;;;;;25.83;18.43;;;;;;;;;;4397501;32;319212;-83
2023/03/02 05:38:30;;;;;;;28.47;18.67;;;;;;;;;;4387163;32;319279;-81
2023/03/02 05:40:57;;;;;;;39.97;21.70;;;;;;;;;;4401382;32;320258;-79
2023/03/02 05:43:24;;;;;;;36.47;18.80;;;;;;;;;;4401227;32;319282;-84
2023/03/02 05:45:54;;;;;;;30.67;16.87;;;;;;;;;;4408138;32;317191;-83
2023/03/02 05:48:21;;;;;;;26.47;16.97;;;;;;;;;;4410694;32;318494;-84
2023/03/02 05:50:52;;;;;;;31.13;19.03;;;;;;;;;;4412576;32;319205;-83
2023/03/02 05:53:18;;;;;;;27.93;18.57;;;;;;;;;;4402437;32;319288;-85
2023/03/02 05:55:45;;;;;;;27.93;17.47;;;;;;;;;;4412613;32;319675;-82
2023/03/02 05:58:14;;;;;;;30.90;19.40;;;;;;;;;;4411607;32;319587;-80
2023/03/02 06:00:41;;;;;;;40.10;21.17;;;;;;;;;;4402425;32;331898;-80
2023/03/02 06:03:08;;;;;;;43.17;24.03;;;;;;;;;;4410958;32;336292;-81
2023/03/02 06:05:35;;;;;;;32.77;22.30;;;;;;;;;;4387413;32;319259;-85
2023/03/02 06:08:05;;;;;;;40.67;23.63;;;;;;;;;;4395107;32;319274;-80
2023/03/02 06:10:33;;;;;;;31.90;21.00;;;;;;;;;;4387737;32;319136;-82
2023/03/02 06:12:59;;;;;;;24.70;16.50;;;;;;;;;;4400300;32;319138;-84
2023/03/02 06:15:28;;;;;;;25.57;16.43;;;;;;;;;;4390427;32;319595;-81
2023/03/02 06:17:55;;;;;;;33.27;18.10;;;;;;;;;;4398848;32;318440;-82
2023/03/02 06:20:22;;;;;;;51.53;23.97;;;;;;;;;;4387745;32;319473;-84
2023/03/02 06:22:49;;;;;;;27.63;15.73;;;;;;;;;;4400118;32;319131;-80
2023/03/02 06:25:19;;;;;;;25.07;14.97;;;;;;;;;;4400321;32;319193;-80
2023/03/02 06:27:49;;;;;;;32.33;16.77;;;;;;;;;;4385596;32;420388;-80
2023/03/02 06:30:18;;;;;;;27.20;16.37;;;;;;;;;;4400145;32;318482;-80
2023/03/02 06:32:45;;;;;;;28.60;16.73;;;;;;;;;;4387149;32;420455;-80
2023/03/02 06:35:13;;;;;;;28.00;16.17;;;;;;;;;;4413739;32;319149;-80
2023/03/02 06:37:40;;;;;;;25.00;17.23;;;;;;;;;;4405066;32;319408;-81
2023/03/02 06:40:10;;;;;;;42.43;19.23;;;;;;;;;;4414238;32;318961;-85
2023/03/02 06:42:39;;;;;;;32.63;20.03;;;;;;;;;;4406928;32;319321;-85
2023/03/02 06:45:07;;;;;;;42.00;23.57;;;;;;;;;;4425152;32;318410;-85
2023/03/02 06:47:35;;;;;;;52.63;29.07;;;;;;;;;;4418065;32;319221;-80
2023/03/02 06:50:01;;;;;;;42.40;26.30;;;;;;;;;;4427208;32;319796;-79
2023/03/02 06:52:28;;;;;;;44.00;28.43;;;;;;;;;;4416984;32;319120;-80
2023/03/02 06:54:55;;;;;;;54.53;24.20;;;;;;;;;;4418272;32;318542;-79
2023/03/02 06:57:22;;;;;;;46.90;24.50;;;;;;;;;;4404420;32;319530;-85
2023/03/02 06:59:50;;;;;;;44.93;25.70;;;;;;;;;;4413989;32;319360;-79
2023/03/02 07:02:17;;;;;;;53.33;24.60;;;;;;;;;;4406180;32;319281;-83
2023/03/02 07:04:44;;;;;;;35.27;20.40;;;;;;;;;;4403239;32;319339;-82
2023/03/02 07:07:11;;;;;;;32.90;20.67;;;;;;;;;;4399204;32;319279;-79
2023/03/02 07:09:37;;;;;;;33.20;21.13;;;;;;;;;;4388760;32;319006;-81
2023/03/02 07:12:04;;;;;;;34.77;20.10;;;;;;;;;;4398604;32;318984;-79
2023/03/02 07:14:31;;;;;;;33.13;19.53;;;;;;;;;;4390853;32;319414;-79
2023/03/02 07:16:59;;;;;;;29.30;19.43;;;;;;;;;;4399146;32;318336;-80
2023/03/02 07:19:27;;;;;;;36.60;23.95;;;;;;;;;;4394721;32;319191;-80
2023/03/02 07:21:54;;;;;;;35.43;22.90;;;;;;;;;;4404011;32;319448;-83
2023/03/02 07:24:21;;;;;;;38.80;25.53;;;;;;;;;;4386319;32;332093;-82
2023/03/02 07:26:48;;;;;;;41.87;25.93;;;;;;;;;;4406851;32;318891;-87
2023/03/02 07:29:15;;;;;;;54.00;29.40;;;;;;;;;;4412912;32;318658;-80
2023/03/02 07:31:43;;;;;;;47.63;27.13;;;;;;;;;;4390334;32;319575;-80
2023/03/02 07:34:11;;;;;;;56.90;30.77;;;;;;;;;;4405069;32;319299;-83
2023/03/02 07:36:38;;;;;;;43.27;25.00;;;;;;;;;;4395261;32;319085;-83
2023/03/02 07:39:04;;;;;;;33.30;21.17;;;;;;;;;;4401547;32;319187;-80
2023/03/02 07:41:31;;;;;;;30.20;21.17;;;;;;;;;;4397255;32;319181;-80
2023/03/02 07:43:58;;;;;;;30.27;22.53;;;;;;;;;;4412923;32;319259;-80
2023/03/02 07:46:25;;;;;;;39.37;25.40;;;;;;;;;;4402871;32;319770;-80
2023/03/02 07:48:52;;;;;;;36.07;23.40;;;;;;;;;;4413732;32;319138;-81
2023/03/02 07:51:20;;;;;;;45.10;25.17;;;;;;;;;;4402454;32;318427;-81
2023/03/02 07:53:47;;;;;;;37.00;23.20;;;;;;;;;;4412421;32;319229;-80
2023/03/02 07:56:14;;;;;;;38.13;22.57;;;;;;;;;;4411286;32;319527;-85
2023/03/02 07:58:41;;;;;;;34.27;20.57;;;;;;;;;;4402517;32;323565;-80
2023/03/02 08:01:08;;;;;;;36.60;19.30;;;;;;;;;;4414214;32;319248;-80
2023/03/02 08:03:35;;;;;;;30.60;19.77;;;;;;;;;;4398701;32;319654;-84
2023/03/02 08:06:05;;;;;;;32.97;19.93;;;;;;;;;;4398340;32;319282;-83
2023/03/02 08:08:35;;;;;;;37.00;23.43;;;;;;;;;;4386959;32;319596;-81
2023/03/02 08:11:05;;;;;;;37.37;24.13;;;;;;;;;;4398424;32;319430;-80
2023/03/02 08:13:32;;;;;;;36.47;21.43;;;;;;;;;;4387215;32;318920;-81
2023/03/02 08:16:00;;;;;;;36.60;22.80;;;;;;;;;;4397229;32;319137;-80
2023/03/02 08:18:27;;;;;;;34.97;22.10;;;;;;;;;;4390395;32;318920;-83
2023/03/02 08:20:54;;;;;;;31.00;20.90;;;;;;;;;;4413678;32;318530;-80
2023/03/02 08:23:21;;;;;;;44.17;25.60;;;;;;;;;;4402224;32;319312;-80
2023/03/02 08:25:49;;;;;;;39.97;24.77;;;;;;;;;;4411287;32;318762;-82
2023/03/02 08:28:17;;;;;;;41.73;24.07;;;;;;;;;;4396872;32;318790;-82
2023/03/02 08:30:44;;;;;;;43.30;24.80;;;;;;;;;;4382606;32;418168;-81
2023/03/02 08:33:11;;;;;;;60.10;30.00;;;;;;;;;;4401323;32;318522;-82
2023/03/02 08:35:38;;;;;;;44.73;28.77;;;;;;;;;;4388644;32;319344;-80
2023/03/02 08:38:05;;;;;;;54.70;28.60;;;;;;;;;;4396791;32;318776;-80
2023/03/02 08:40:31;;;;;;;55.83;30.80;;;;;;;;;;4389163;32;319394;-80
2023/03/02 08:42:59;;;;;;;60.53;30.10;;;;;;;;;;4411783;32;318777;-80
2023/03/02 08:45:34;;;;;;;66.03;34.03;;;;;;;;;;4402110;32;319256;-82
2023/03/02 08:48:00;;;;;;;54.57;27.10;;;;;;;;;;4413348;32;319208;-83
2023/03/02 08:50:27;;;;;;;60.67;30.77;;;;;;;;;;4401830;32;319467;-83
2023/03/02 08:52:54;;;;;;;53.60;30.00;;;;;;;;;;4411319;32;319682;-81
2023/03/02 08:55:21;;;;;;;56.83;27.43;;;;;;;;;;4403080;32;319226;-81
2023/03/02 08:57:48;;;;;;;49.53;25.27;;;;;;;;;;4410854;32;318800;-83
2023/03/02 09:00:17;;;;;;;53.73;24.33;;;;;;;;;;4412131;32;329624;-81
2023/03/02 09:02:44;;;;;;;42.63;24.50;;;;;;;;;;4398946;32;418688;-81
2023/03/02 09:05:11;;;;;;;44.47;24.10;;;;;;;;;;4411939;32;344027;-80
2023/03/02 09:07:38;;;;;;;44.67;21.53;;;;;;;;;;4402245;32;319374;-81
2023/03/02 09:10:05;;;;;;;44.50;24.03;;;;;;;;;;4412520;32;319474;-82
2023/03/02 09:12:32;;;;;;;43.50;23.00;;;;;;;;;;4402924;32;319623;-86
2023/03/02 09:14:58;;;;;;;48.77;23.13;;;;;;;;;;4413109;32;318525;-83
2023/03/02 09:17:27;;;;;;;37.20;20.83;;;;;;;;;;4401868;32;319656;-80
2023/03/02 09:19:53;;;;;;;42.47;21.73;;;;;;;;;;4410448;32;319400;-83
2023/03/02 09:22:20;;;;;;;32.33;20.27;;;;;;;;;;4401257;32;319580;-80
2023/03/02 09:24:48;;;;;;;44.00;21.97;;;;;;;;;;4412870;32;319489;-82
2023/03/02 09:27:15;;;;;;;54.33;26.57;;;;;;;;;;4412206;32;318706;-81
2023/03/02 09:29:42;;;;;;;65.23;29.70;;;;;;;;;;4393556;32;318615;-85
2023/03/02 09:32:08;;;;;;;57.70;30.20;;;;;;;;;;4412272;32;319661;-80
2023/03/02 09:34:39;;;;;;;66.67;31.27;;;;;;;;;;4401530;32;319359;-80
2023/03/02 09:37:05;;;;;;;52.03;30.67;;;;;;;;;;4412244;32;319563;-81
2023/03/02 09:39:32;;;;;;;60.43;28.90;;;;;;;;;;4400991;32;319323;-79
2023/03/02 09:42:34;;;;;;;69.93;37.07;;;;;;;;;;4411754;32;318751;-80
2023/03/02 09:45:14;;;;;;;49.13;31.17;;;;;;;;;;4373483;32;421567;-80
2023/03/02 09:47:50;;;;;;;48.00;26.13;;;;;;;;;;4401440;32;319392;-82
2023/03/02 09:50:28;;;;;;;40.93;21.10;;;;;;;;;;4412542;32;319027;-81
2023/03/02 09:53:30;;;;;;;45.47;24.77;;;;;;;;;;4399094;32;420073;-82
2023/03/02 09:56:00;;;;;;;69.53;31.83;;;;;;;;;;4398280;32;419921;-81
2023/03/02 09:58:33;;;;;;;55.27;27.47;;;;;;;;;;4402142;32;319673;-85
2023/03/02 10:01:03;;;;;;;60.57;28.67;;;;;;;;;;4411175;32;319248;-80
2023/03/02 10:03:38;;;;;;;48.30;22.67;;;;;;;;;;4398829;32;319247;-81
2023/03/02 10:06:06;;;;;;;91.00;43.73;;;;;;;;;;4395544;32;318724;-80
2023/03/02 10:08:36;;;;;;;45.63;23.33;;;;;;;;;;4386986;32;318597;-83
2023/03/02 10:11:10;;;;;;;91.50;48.43;;;;;;;;;;4397111;32;319441;-81
2023/03/02 10:13:42;;;;;;;62.15;29.05;;;;;;;;;;4386137;32;330199;-83
2023/03/02 10:16:19;;;;;;;51.43;27.37;;;;;;;;;;4397005;32;319251;-80
2023/03/02 10:18:51;;;;;;;42.53;22.40;;;;;;;;;;4384218;32;418597;-79
2023/03/02 10:21:24;;;;;;;46.13;24.97;;;;;;;;;;4386502;32;319433;-83
2023/03/02 10:23:59;;;;;;;33.43;20.97;;;;;;;;;;4395444;32;319417;-81
2023/03/02 10:26:36;;;;;;;40.77;22.67;;;;;;;;;;4384792;32;318742;-79
2023/03/02 10:29:17;;;;;;;44.47;22.53;;;;;;;;;;4395836;32;319396;-80
2023/03/02 10:31:45;;;;;;;48.27;21.53;;;;;;;;;;4383204;32;420976;-81
2023/03/02 10:34:14;;;;;;;44.90;25.17;;;;;;;;;;4396688;32;319335;-83
2023/03/02 10:36:46;;;;;;;50.13;31.07;;;;;;;;;;4388717;32;319703;-82
2023/03/02 10:39:15;;;;;;;54.57;27.80;;;;;;;;;;4411677;32;319423;-79
2023/03/02 10:41:48;;;;;;;46.30;28.87;;;;;;;;;;4412060;32;318871;-82
2023/03/02 10:44:21;;;;;;;52.33;28.57;;;;;;;;;;4426186;32;318047;-82
2023/03/02 10:46:47;;;;;;;75.73;30.10;;;;;;;;;;4412330;32;418715;-80
2023/03/02 10:49:26;;;;;;;37.07;20.87;;;;;;;;;;4413451;32;319508;-80
2023/03/02 10:52:00;;;;;;;64.53;21.57;;;;;;;;;;4399086;32;419204;-80
2023/03/02 10:54:28;;;;;;;44.20;23.90;;;;;;;;;;4400555;32;319292;-80
2023/03/02 10:56:59;;;;;;;47.27;23.70;;;;;;;;;;4412910;32;319200;-80
2023/03/02 10:59:43;;;;;;;47.17;23.83;;;;;;;;;;4404407;32;319570;-82
2023/03/02 11:02:21;;;;;;;49.47;21.63;;;;;;;;;;4413139;32;319392;-80
2023/03/02 11:04:49;;;;;;;45.97;24.77;;;;;;;;;;4388512;32;392273;-80
2023/03/02 11:07:19;;;;;;;39.03;24.90;;;;;;;;;;4399715;32;319267;-81
2023/03/02 11:10:00;;;;;;;44.90;21.07;;;;;;;;;;4384408;32;418405;-81
2023/03/02 11:12:28;;;;;;;55.67;29.53;;;;;;;;;;4388983;32;319111;-80
2023/03/02 11:15:31;;;;;;;45.33;28.63;;;;;;;;;;4398971;32;318717;-81
2023/03/02 11:18:02;;;;;;;48.70;28.87;;;;;;;;;;4358939;32;420946;-81
2023/03/02 11:20:32;;;;;;;61.70;32.10;;;;;;;;;;4389250;32;319609;-83
2023/03/02 11:23:19;;;;;;;57.73;30.73;;;;;;;;;;4398699;32;319743;-81
2023/03/02 11:25:52;;;;;;;55.70;29.30;;;;;;;;;;4386053;32;419150;-81
2023/03/02 11:28:31;;;;;;;50.40;27.37;;;;;;;;;;4387323;32;319371;-81
2023/03/02 11:31:01;;;;;;;50.60;27.47;;;;;;;;;;4399393;32;319253;-80
2023/03/02 11:33:37;;;;;;;58.40;33.70;;;;;;;;;;4382545;32;319254;-80
2023/03/02 11:36:08;;;;;;;48.83;29.13;;;;;;;;;;4407369;32;319463;-82
2023/03/02 11:38:45;;;;;;;57.20;29.37;;;;;;;;;;4387618;32;319405;-80
2023/03/02 11:41:25;;;;;;;56.83;29.07;;;;;;;;;;4405629;32;319427;-85
2023/03/02 11:43:53;;;;;;;53.47;29.07;;;;;;;;;;4400879;32;419460;-80
2023/03/02 11:46:24;;;;;;;51.40;26.63;;;;;;;;;;4403900;32;318636;-82
2023/03/02 11:48:54;;;;;;;45.73;23.10;;;;;;;;;;4414104;32;318854;-81
2023/03/02 11:51:23;;;;;;;36.57;21.33;;;;;;;;;;4402656;32;319467;-85
2023/03/02 11:53:55;;;;;;;29.83;20.90;;;;;;;;;;4413181;32;318638;-81
2023/03/02 11:56:23;;;;;;;35.53;21.40;;;;;;;;;;4403871;32;319236;-81
2023/03/02 11:58:56;;;;;;;56.23;21.67;;;;;;;;;;4412643;32;318942;-80
2023/03/02 12:01:25;;;;;;;48.77;23.73;;;;;;;;;;4403124;32;319584;-80
2023/03/02 12:03:53;;;;;;;44.97;23.40;;;;;;;;;;4406661;32;320044;-80
2023/03/02 12:06:35;;;;;;;34.47;20.00;;;;;;;;;;4388738;32;319580;-82
2023/03/02 12:09:32;;;;;;;28.87;17.67;;;;;;;;;;4397119;32;319153;-83
2023/03/02 12:12:10;;;;;;;29.23;17.30;;;;;;;;;;4384398;32;421203;-82
2023/03/02 12:14:39;;;;;;;28.83;19.03;;;;;;;;;;4387449;32;319475;-80
2023/03/02 12:17:30;;;;;;;30.53;20.20;;;;;;;;;;4397320;32;318677;-80
2023/03/02 12:20:23;;;;;;;27.27;18.27;;;;;;;;;;4384806;32;419693;-80
2023/03/02 12:22:50;;;;;;;34.93;21.00;;;;;;;;;;4383435;32;419123;-80
2023/03/02 12:25:37;;;;;;;32.53;19.80;;;;;;;;;;4397485;32;319420;-82
2023/03/02 12:28:04;;;;;;;30.83;17.47;;;;;;;;;;4384129;32;419097;-79
2023/03/02 12:30:31;;;;;;;28.90;18.20;;;;;;;;;;4387447;32;319746;-82
2023/03/02 12:33:18;;;;;;;23.80;17.90;;;;;;;;;;4398528;32;319634;-80
2023/03/02 12:35:47;;;;;;;33.03;18.30;;;;;;;;;;4383880;32;419087;-84
2023/03/02 12:38:32;;;;;;;30.37;19.37;;;;;;;;;;4397055;32;319456;-80
2023/03/02 12:41:38;;;;;;;33.00;21.63;;;;;;;;;;4391231;32;419384;-82
2023/03/02 12:44:20;;;;;;;37.30;19.97;;;;;;;;;;4400727;32;420138;-80
2023/03/02 12:46:50;;;;;;;30.70;20.30;;;;;;;;;;4399269;32;392576;-83
2023/03/02 12:49:35;;;;;;;37.90;19.63;;;;;;;;;;4413145;32;319310;-80
2023/03/02 12:52:17;;;;;;;39.80;18.90;;;;;;;;;;4400612;32;421337;-80
2023/03/02 12:54:44;;;;;;;32.53;19.70;;;;;;;;;;4400967;32;419630;-80
2023/03/02 12:57:16;;;;;;;38.50;26.43;;;;;;;;;;4413583;32;318523;-83
2023/03/02 12:59:50;;;;;;;49.00;31.07;;;;;;;;;;4403402;32;318543;-80
2023/03/02 13:02:20;;;;;;;43.67;23.57;;;;;;;;;;4413753;32;319749;-80
2023/03/02 13:04:53;;;;;;;44.27;26.73;;;;;;;;;;4388175;32;418715;-80
2023/03/02 13:07:24;;;;;;;53.20;26.27;;;;;;;;;;4386525;32;319070;-81
2023/03/02 13:09:52;;;;;;;61.33;44.57;;;;;;;;;;4396695;32;318478;-81
2023/03/02 13:12:21;;;;;;;32.73;22.33;;;;;;;;;;4387722;32;319402;-81
2023/03/02 13:14:52;;;;;;;36.97;22.87;;;;;;;;;;4396941;32;319363;-83
2023/03/02 13:17:25;;;;;;;44.37;22.90;;;;;;;;;;4388127;32;318452;-80
2023/03/02 13:19:53;;;;;;;44.30;22.13;;;;;;;;;;4397490;32;319259;-82
2023/03/02 13:22:21;;;;;;;36.33;23.13;;;;;;;;;;4384771;32;358876;-79
2023/03/02 13:24:51;;;;;;;46.23;26.63;;;;;;;;;;4396360;32;319283;-79
2023/03/02 13:27:21;;;;;;;42.63;27.40;;;;;;;;;;4387874;32;319298;-80
2023/03/02 13:29:50;;;;;;;37.80;23.93;;;;;;;;;;4397721;32;319230;-80
2023/03/02 13:32:20;;;;;;;72.47;38.97;;;;;;;;;;4397740;32;318954;-81
2023/03/02 13:34:49;;;;;;;41.50;21.97;;;;;;;;;;4385359;32;416703;-84
2023/03/02 13:37:52;;;;;;;33.43;22.30;;;;;;;;;;4394273;32;318501;-81
2023/03/02 13:40:40;;;;;;;41.03;21.63;;;;;;;;;;4351642;32;418968;-81
2023/03/02 13:43:54;;;;;;;34.83;21.23;;;;;;;;;;4378837;32;319580;-85
2023/03/02 13:46:27;;;;;;;32.93;24.70;;;;;;;;;;4320419;32;418955;-83
2023/03/02 13:48:55;;;;;;;41.23;22.10;;;;;;;;;;4335333;32;319597;-81
2023/03/02 13:51:24;;;;;;;38.03;23.03;;;;;;;;;;4324294;32;319505;-82
2023/03/02 13:53:56;;;;;;;40.53;23.97;;;;;;;;;;4335297;32;319458;-81
2023/03/02 13:56:26;;;;;;;47.20;23.97;;;;;;;;;;4323690;32;347296;-80
2023/03/02 13:58:55;;;;;;;47.47;25.70;;;;;;;;;;4362589;32;318715;-80
2023/03/02 14:01:22;;;;;;;41.07;24.17;;;;;;;;;;4369616;32;319149;-81
2023/03/02 14:03:48;;;;;;;47.57;30.20;;;;;;;;;;4385404;32;319287;-81
2023/03/02 14:06:17;;;;;;;39.40;28.70;;;;;;;;;;4413789;32;319167;-81
2023/03/02 14:08:44;;;;;;;64.97;34.27;;;;;;;;;;4403332;32;420123;-78
2023/03/02 14:11:12;;;;;;;42.33;25.83;;;;;;;;;;4415412;32;319128;-79
2023/03/02 14:13:42;;;;;;;45.03;27.40;;;;;;;;;;4406539;32;319535;-79
2023/03/02 14:16:12;;;;;;;41.17;24.77;;;;;;;;;;4418858;32;318541;-80
2023/03/02 14:18:41;;;;;;;71.20;35.13;;;;;;;;;;4402694;32;318478;-80
2023/03/02 14:21:12;;;;;;;40.57;26.07;;;;;;;;;;4399465;32;319608;-79